Carson, NM (87517)

12:21 AM MDT on August 29, 2015 (GMT -0600)
Los Cordovas /Cuchilla | | Change Station
CLOSE
Current Station
Personal Weather Station
Location: Ranchos De Taos, NM
Elevation: 6778 ft
Nearby Weather Stations

Elev 6778 ft 36.37 °N, 105.65 °W | Updated 0 second ago

Partly Cloudy
Partly Cloudy
63.5 °F
Feels Like 63.5 °F
N
2.9
Wind Variable Wind from NE
Gusts 4.9 mph

Today
High -- | Low -- °F
--% Chance of Precip.
Yesterday
High -- | Low -- °F
Precip. -- in
6:31 AM 7:35 PM
Full, 100% visible
Pressure 30.40 in
Visibility 10.0 miles
Clouds Scattered Clouds 8500 ft
Dew Point 47 °F
Humidity 54%
Rainfall 0.00 in
Snow Depth Not available.
UV 0.0 out of 12
Pollen 9.90 out of 12
Air Quality Not available.
Flu Activity Not available.
METAR KSKX 290615Z AUTO 12007KT 10SM SCT085 17/04 A3040 RMK AO1
Pressure 30.40 in
Visibility 10.0 miles
Clouds Scattered Clouds 8500 ft
Dew Point 47 °F
Humidity 54%
Rainfall 0.00 in
Snow Depth Not available.
UV 0.0 out of 12
Pollen 9.90 out of 12
Air Quality Not available.
Flu Activity Not available.
METAR KSKX 290615Z AUTO 12007KT 10SM SCT085 17/04 A3040 RMK AO1

10-Day Weather Forecast

×

Almanac

Astronomy

Aug. 29, 2015 Rise Set
Actual Time
Civil Twilight
Nautical Twilight
Astronomical Twilight
Moon
Length of Visible Light
Length of Day
Tomorrow will be .
, % of the Moon is Illuminated

Today's Extremes

State Highs State Lows

Community

WunderPhotos

Upload Photos

1,850,622 photos uploaded!

WunderBlogs® & News

Nearby

Air Quality

  Air Quality AQ Index Pollutant
Not available.

Snow Depth

Station Depth Elevation

Earthquake Activity

City Distance Mag. Time & Date
Minimum magnitude displayed is 2.5.

Coastal Water Temperatures

Place Temperature

Stations

Nearby Weather Stations

Station Location Temp. Windchill Dew Point Humidity Wind Precip. Elev Updated Type